sensor_id;sensor_type;location;lat;lon;timestamp;P1;durP1;ratioP1;P2;durP2;ratioP2
19808;SDS011;48538;32.784;-96.802;2023-11-19T00:01:56;16.65;;;8.00;;
19808;SDS011;48538;32.784;-96.802;2023-11-19T00:04:22;12.95;;;7.80;;
19808;SDS011;48538;32.784;-96.802;2023-11-19T00:06:49;10.65;;;7.13;;
19808;SDS011;48538;32.784;-96.802;2023-11-19T00:09:15;16.20;;;8.73;;
19808;SDS011;48538;32.784;-96.802;2023-11-19T00:11:43;13.25;;;7.05;;
19808;SDS011;48538;32.784;-96.802;2023-11-19T00:14:09;12.65;;;7.18;;
19808;SDS011;48538;32.784;-96.802;2023-11-19T00:16:36;11.82;;;7.07;;
19808;SDS011;48538;32.784;-96.802;2023-11-19T00:19:02;10.98;;;7.10;;
19808;SDS011;48538;32.784;-96.802;2023-11-19T00:21:29;14.02;;;6.70;;
19808;SDS011;48538;32.784;-96.802;2023-11-19T00:23:55;9.00;;;6.40;;
19808;SDS011;48538;32.784;-96.802;2023-11-19T00:26:23;9.40;;;6.47;;
19808;SDS011;48538;32.784;-96.802;2023-11-19T00:28:49;7.32;;;5.47;;
19808;SDS011;48538;32.784;-96.802;2023-11-19T00:31:18;6.45;;;4.78;;
19808;SDS011;48538;32.784;-96.802;2023-11-19T00:33:44;8.48;;;4.88;;
19808;SDS011;48538;32.784;-96.802;2023-11-19T00:36:11;8.82;;;4.82;;
19808;SDS011;48538;32.784;-96.802;2023-11-19T00:38:38;8.88;;;4.75;;
19808;SDS011;48538;32.784;-96.802;2023-11-19T00:41:04;7.55;;;5.32;;
19808;SDS011;48538;32.784;-96.802;2023-11-19T00:43:31;8.35;;;4.93;;
19808;SDS011;48538;32.784;-96.802;2023-11-19T00:45:57;8.85;;;4.38;;
19808;SDS011;48538;32.784;-96.802;2023-11-19T00:48:24;7.13;;;4.68;;
19808;SDS011;48538;32.784;-96.802;2023-11-19T00:50:50;8.15;;;4.90;;
19808;SDS011;48538;32.784;-96.802;2023-11-19T00:53:16;6.68;;;4.65;;
19808;SDS011;48538;32.784;-96.802;2023-11-19T00:55:43;6.18;;;4.47;;
19808;SDS011;48538;32.784;-96.802;2023-11-19T00:58:09;7.25;;;4.95;;
19808;SDS011;48538;32.784;-96.802;2023-11-19T01:00:35;7.68;;;4.88;;
19808;SDS011;48538;32.784;-96.802;2023-11-19T01:03:02;6.95;;;5.22;;
19808;SDS011;48538;32.784;-96.802;2023-11-19T01:05:28;8.52;;;5.07;;
19808;SDS011;48538;32.784;-96.802;2023-11-19T01:07:54;7.28;;;5.28;;
19808;SDS011;48538;32.784;-96.802;2023-11-19T01:10:20;9.90;;;4.97;;
19808;SDS011;48538;32.784;-96.802;2023-11-19T01:12:47;8.23;;;5.63;;
19808;SDS011;48538;32.784;-96.802;2023-11-19T01:15:13;8.95;;;5.40;;
19808;SDS011;48538;32.784;-96.802;2023-11-19T01:17:39;6.68;;;5.05;;
19808;SDS011;48538;32.784;-96.802;2023-11-19T01:20:06;7.57;;;5.03;;
19808;SDS011;48538;32.784;-96.802;2023-11-19T01:22:32;8.90;;;5.97;;
19808;SDS011;48538;32.784;-96.802;2023-11-19T01:24:59;9.05;;;6.00;;
19808;SDS011;48538;32.784;-96.802;2023-11-19T01:27:25;9.52;;;5.80;;
19808;SDS011;48538;32.784;-96.802;2023-11-19T01:29:51;7.50;;;4.90;;
19808;SDS011;48538;32.784;-96.802;2023-11-19T01:32:17;10.60;;;5.40;;
19808;SDS011;48538;32.784;-96.802;2023-11-19T01:34:44;8.80;;;5.47;;
19808;SDS011;48538;32.784;-96.802;2023-11-19T01:37:10;6.32;;;5.18;;
19808;SDS011;48538;32.784;-96.802;2023-11-19T01:39:38;8.02;;;4.80;;
19808;SDS011;48538;32.784;-96.802;2023-11-19T01:42:04;7.38;;;5.28;;
19808;SDS011;48538;32.784;-96.802;2023-11-19T01:44:30;10.02;;;6.18;;
19808;SDS011;48538;32.784;-96.802;2023-11-19T01:46:57;7.75;;;5.18;;
19808;SDS011;48538;32.784;-96.802;2023-11-19T01:49:23;8.93;;;4.75;;
19808;SDS011;48538;32.784;-96.802;2023-11-19T01:51:50;7.18;;;5.40;;
19808;SDS011;48538;32.784;-96.802;2023-11-19T01:54:17;10.10;;;6.40;;
19808;SDS011;48538;32.784;-96.802;2023-11-19T01:56:43;6.47;;;5.07;;
19808;SDS011;48538;32.784;-96.802;2023-11-19T01:59:10;10.90;;;6.13;;
19808;SDS011;48538;32.784;-96.802;2023-11-19T02:01:39;9.75;;;5.07;;
19808;SDS011;48538;32.784;-96.802;2023-11-19T02:04:06;9.98;;;5.40;;
19808;SDS011;48538;32.784;-96.802;2023-11-19T02:06:34;9.02;;;6.20;;
19808;SDS011;48538;32.784;-96.802;2023-11-19T02:09:03;11.00;;;5.78;;
19808;SDS011;48538;32.784;-96.802;2023-11-19T02:11:33;8.05;;;6.03;;
19808;SDS011;48538;32.784;-96.802;2023-11-19T02:14:00;7.70;;;5.65;;
19808;SDS011;48538;32.784;-96.802;2023-11-19T02:16:28;9.80;;;5.60;;
19808;SDS011;48538;32.784;-96.802;2023-11-19T02:18:54;10.18;;;5.78;;
19808;SDS011;48538;32.784;-96.802;2023-11-19T02:21:21;7.30;;;5.20;;
19808;SDS011;48538;32.784;-96.802;2023-11-19T02:23:47;8.80;;;6.20;;
19808;SDS011;48538;32.784;-96.802;2023-11-19T02:26:24;21.30;;;11.75;;
19808;SDS011;48538;32.784;-96.802;2023-11-19T02:29:01;35.25;;;16.67;;
19808;SDS011;48538;32.784;-96.802;2023-11-19T02:31:28;15.45;;;8.57;;
19808;SDS011;48538;32.784;-96.802;2023-11-19T02:33:54;17.95;;;9.57;;
19808;SDS011;48538;32.784;-96.802;2023-11-19T02:36:20;20.67;;;11.40;;
19808;SDS011;48538;32.784;-96.802;2023-11-19T02:38:46;20.75;;;11.77;;
19808;SDS011;48538;32.784;-96.802;2023-11-19T02:41:13;21.77;;;11.73;;
19808;SDS011;48538;32.784;-96.802;2023-11-19T02:43:40;20.77;;;10.25;;
19808;SDS011;48538;32.784;-96.802;2023-11-19T02:46:06;26.35;;;15.32;;
19808;SDS011;48538;32.784;-96.802;2023-11-19T02:48:33;17.48;;;11.60;;
19808;SDS011;48538;32.784;-96.802;2023-11-19T02:51:03;20.15;;;12.07;;
19808;SDS011;48538;32.784;-96.802;2023-11-19T02:53:30;17.60;;;10.93;;
19808;SDS011;48538;32.784;-96.802;2023-11-19T02:55:57;23.33;;;13.85;;
19808;SDS011;48538;32.784;-96.802;2023-11-19T02:58:42;18.63;;;11.07;;
19808;SDS011;48538;32.784;-96.802;2023-11-19T03:01:10;21.13;;;12.00;;
19808;SDS011;48538;32.784;-96.802;2023-11-19T03:03:48;25.60;;;14.35;;
19808;SDS011;48538;32.784;-96.802;2023-11-19T03:06:19;16.15;;;10.55;;
19808;SDS011;48538;32.784;-96.802;2023-11-19T03:08:49;24.70;;;14.80;;
19808;SDS011;48538;32.784;-96.802;2023-11-19T03:11:15;15.35;;;10.43;;
19808;SDS011;48538;32.784;-96.802;2023-11-19T03:13:41;23.58;;;16.52;;
19808;SDS011;48538;32.784;-96.802;2023-11-19T03:16:08;17.65;;;13.50;;
19808;SDS011;48538;32.784;-96.802;2023-11-19T03:18:35;17.20;;;10.73;;
19808;SDS011;48538;32.784;-96.802;2023-11-19T03:21:01;12.98;;;9.35;;
19808;SDS011;48538;32.784;-96.802;2023-11-19T03:23:28;17.35;;;9.73;;
19808;SDS011;48538;32.784;-96.802;2023-11-19T03:25:54;17.65;;;11.35;;
19808;SDS011;48538;32.784;-96.802;2023-11-19T03:28:22;23.50;;;12.55;;
19808;SDS011;48538;32.784;-96.802;2023-11-19T03:30:48;11.95;;;8.57;;
19808;SDS011;48538;32.784;-96.802;2023-11-19T03:33:14;9.77;;;6.53;;
19808;SDS011;48538;32.784;-96.802;2023-11-19T03:35:40;11.32;;;7.47;;
19808;SDS011;48538;32.784;-96.802;2023-11-19T03:38:07;16.13;;;10.10;;
19808;SDS011;48538;32.784;-96.802;2023-11-19T03:40:33;13.55;;;7.63;;
19808;SDS011;48538;32.784;-96.802;2023-11-19T03:42:59;14.82;;;8.50;;
19808;SDS011;48538;32.784;-96.802;2023-11-19T03:45:25;13.80;;;9.02;;
19808;SDS011;48538;32.784;-96.802;2023-11-19T03:47:52;10.38;;;7.43;;
19808;SDS011;48538;32.784;-96.802;2023-11-19T03:50:18;14.32;;;8.35;;
19808;SDS011;48538;32.784;-96.802;2023-11-19T03:52:49;13.05;;;8.95;;
19808;SDS011;48538;32.784;-96.802;2023-11-19T03:55:15;13.20;;;8.43;;
19808;SDS011;48538;32.784;-96.802;2023-11-19T03:57:41;13.85;;;8.75;;
19808;SDS011;48538;32.784;-96.802;2023-11-19T04:00:08;16.35;;;9.95;;
19808;SDS011;48538;32.784;-96.802;2023-11-19T04:02:38;15.18;;;7.95;;
19808;SDS011;48538;32.784;-96.802;2023-11-19T04:05:05;10.65;;;7.32;;
19808;SDS011;48538;32.784;-96.802;2023-11-19T04:07:35;11.02;;;7.30;;
19808;SDS011;48538;32.784;-96.802;2023-11-19T04:10:01;17.40;;;8.07;;
19808;SDS011;48538;32.784;-96.802;2023-11-19T04:12:28;13.07;;;7.35;;
19808;SDS011;48538;32.784;-96.802;2023-11-19T04:14:55;10.77;;;7.25;;
19808;SDS011;48538;32.784;-96.802;2023-11-19T04:17:21;11.82;;;7.25;;
19808;SDS011;48538;32.784;-96.802;2023-11-19T04:19:48;10.73;;;7.22;;
19808;SDS011;48538;32.784;-96.802;2023-11-19T04:22:14;9.55;;;6.90;;
19808;SDS011;48538;32.784;-96.802;2023-11-19T04:24:41;13.38;;;7.13;;
19808;SDS011;48538;32.784;-96.802;2023-11-19T04:27:09;18.13;;;10.50;;
19808;SDS011;48538;32.784;-96.802;2023-11-19T04:29:35;15.93;;;9.55;;
19808;SDS011;48538;32.784;-96.802;2023-11-19T04:32:01;12.32;;;7.13;;
19808;SDS011;48538;32.784;-96.802;2023-11-19T04:34:28;17.92;;;8.25;;
19808;SDS011;48538;32.784;-96.802;2023-11-19T04:36:54;10.82;;;6.25;;
19808;SDS011;48538;32.784;-96.802;2023-11-19T04:39:20;12.23;;;7.28;;
19808;SDS011;48538;32.784;-96.802;2023-11-19T04:41:48;8.32;;;6.13;;
19808;SDS011;48538;32.784;-96.802;2023-11-19T04:44:15;10.70;;;6.65;;
19808;SDS011;48538;32.784;-96.802;2023-11-19T04:46:42;10.45;;;6.35;;
19808;SDS011;48538;32.784;-96.802;2023-11-19T04:49:09;12.77;;;6.82;;
19808;SDS011;48538;32.784;-96.802;2023-11-19T04:51:42;12.43;;;7.13;;
19808;SDS011;48538;32.784;-96.802;2023-11-19T04:54:14;11.18;;;6.25;;
19808;SDS011;48538;32.784;-96.802;2023-11-19T04:56:40;13.05;;;7.63;;
19808;SDS011;48538;32.784;-96.802;2023-11-19T04:59:10;13.13;;;8.40;;
19808;SDS011;48538;32.784;-96.802;2023-11-19T05:01:36;11.77;;;7.43;;
19808;SDS011;48538;32.784;-96.802;2023-11-19T05:04:02;10.75;;;6.70;;
19808;SDS011;48538;32.784;-96.802;2023-11-19T05:06:29;13.48;;;7.68;;
19808;SDS011;48538;32.784;-96.802;2023-11-19T05:08:57;13.93;;;7.03;;
19808;SDS011;48538;32.784;-96.802;2023-11-19T05:11:33;13.55;;;7.53;;
19808;SDS011;48538;32.784;-96.802;2023-11-19T05:13:59;11.68;;;7.30;;
19808;SDS011;48538;32.784;-96.802;2023-11-19T05:16:29;12.63;;;7.50;;
19808;SDS011;48538;32.784;-96.802;2023-11-19T05:18:55;9.90;;;6.32;;
19808;SDS011;48538;32.784;-96.802;2023-11-19T05:21:21;9.95;;;6.97;;
19808;SDS011;48538;32.784;-96.802;2023-11-19T05:23:49;8.68;;;5.57;;
19808;SDS011;48538;32.784;-96.802;2023-11-19T05:26:21;10.43;;;6.47;;
19808;SDS011;48538;32.784;-96.802;2023-11-19T05:28:49;8.27;;;5.72;;
19808;SDS011;48538;32.784;-96.802;2023-11-19T05:31:16;7.00;;;5.30;;
19808;SDS011;48538;32.784;-96.802;2023-11-19T05:33:43;9.82;;;5.70;;
19808;SDS011;48538;32.784;-96.802;2023-11-19T05:36:10;9.25;;;5.90;;
19808;SDS011;48538;32.784;-96.802;2023-11-19T05:38:37;7.85;;;5.38;;
19808;SDS011;48538;32.784;-96.802;2023-11-19T05:41:04;8.60;;;5.18;;
19808;SDS011;48538;32.784;-96.802;2023-11-19T05:43:31;10.63;;;6.25;;
19808;SDS011;48538;32.784;-96.802;2023-11-19T05:45:57;11.30;;;6.05;;
19808;SDS011;48538;32.784;-96.802;2023-11-19T05:48:25;18.55;;;5.93;;
19808;SDS011;48538;32.784;-96.802;2023-11-19T05:50:53;8.80;;;5.03;;
19808;SDS011;48538;32.784;-96.802;2023-11-19T05:53:20;9.25;;;5.95;;
19808;SDS011;48538;32.784;-96.802;2023-11-19T05:55:46;10.52;;;6.75;;
19808;SDS011;48538;32.784;-96.802;2023-11-19T05:58:20;10.77;;;6.30;;
19808;SDS011;48538;32.784;-96.802;2023-11-19T06:00:48;9.70;;;5.57;;
19808;SDS011;48538;32.784;-96.802;2023-11-19T06:03:15;9.63;;;5.90;;
19808;SDS011;48538;32.784;-96.802;2023-11-19T06:05:44;8.57;;;5.78;;
19808;SDS011;48538;32.784;-96.802;2023-11-19T06:08:13;10.38;;;6.30;;
19808;SDS011;48538;32.784;-96.802;2023-11-19T06:10:40;10.38;;;5.88;;
19808;SDS011;48538;32.784;-96.802;2023-11-19T06:13:16;10.93;;;6.32;;
19808;SDS011;48538;32.784;-96.802;2023-11-19T06:15:42;8.35;;;5.88;;
19808;SDS011;48538;32.784;-96.802;2023-11-19T06:18:09;12.93;;;5.68;;
19808;SDS011;48538;32.784;-96.802;2023-11-19T06:20:37;7.45;;;5.10;;
19808;SDS011;48538;32.784;-96.802;2023-11-19T06:23:04;9.57;;;5.65;;
19808;SDS011;48538;32.784;-96.802;2023-11-19T06:25:30;7.78;;;5.03;;
19808;SDS011;48538;32.784;-96.802;2023-11-19T06:27:56;9.07;;;5.82;;
19808;SDS011;48538;32.784;-96.802;2023-11-19T06:30:23;8.98;;;6.05;;
19808;SDS011;48538;32.784;-96.802;2023-11-19T06:32:49;9.40;;;6.03;;
19808;SDS011;48538;32.784;-96.802;2023-11-19T06:35:15;10.45;;;5.88;;
19808;SDS011;48538;32.784;-96.802;2023-11-19T06:37:42;9.55;;;7.05;;
19808;SDS011;48538;32.784;-96.802;2023-11-19T06:40:08;8.63;;;6.45;;
19808;SDS011;48538;32.784;-96.802;2023-11-19T06:42:35;11.43;;;7.13;;
19808;SDS011;48538;32.784;-96.802;2023-11-19T06:45:01;11.63;;;6.57;;
19808;SDS011;48538;32.784;-96.802;2023-11-19T06:47:28;11.27;;;6.63;;
19808;SDS011;48538;32.784;-96.802;2023-11-19T06:49:55;11.90;;;7.65;;
19808;SDS011;48538;32.784;-96.802;2023-11-19T06:52:21;11.20;;;7.90;;
19808;SDS011;48538;32.784;-96.802;2023-11-19T06:54:48;14.57;;;8.75;;
19808;SDS011;48538;32.784;-96.802;2023-11-19T06:57:14;10.43;;;7.18;;
19808;SDS011;48538;32.784;-96.802;2023-11-19T06:59:40;12.20;;;7.90;;
19808;SDS011;48538;32.784;-96.802;2023-11-19T07:02:07;10.57;;;7.40;;
19808;SDS011;48538;32.784;-96.802;2023-11-19T07:04:34;13.38;;;8.05;;
19808;SDS011;48538;32.784;-96.802;2023-11-19T07:07:00;12.52;;;8.02;;
19808;SDS011;48538;32.784;-96.802;2023-11-19T07:09:26;10.07;;;7.47;;
19808;SDS011;48538;32.784;-96.802;2023-11-19T07:11:53;10.18;;;6.97;;
19808;SDS011;48538;32.784;-96.802;2023-11-19T07:14:19;10.57;;;7.07;;
19808;SDS011;48538;32.784;-96.802;2023-11-19T07:16:46;13.50;;;7.47;;
19808;SDS011;48538;32.784;-96.802;2023-11-19T07:19:12;15.02;;;7.10;;
19808;SDS011;48538;32.784;-96.802;2023-11-19T07:21:41;8.43;;;5.70;;
19808;SDS011;48538;32.784;-96.802;2023-11-19T07:24:09;12.77;;;7.25;;
19808;SDS011;48538;32.784;-96.802;2023-11-19T07:26:42;13.23;;;6.82;;
19808;SDS011;48538;32.784;-96.802;2023-11-19T07:29:09;8.75;;;6.40;;
19808;SDS011;48538;32.784;-96.802;2023-11-19T07:31:35;10.50;;;6.40;;
19808;SDS011;48538;32.784;-96.802;2023-11-19T07:34:02;9.52;;;6.78;;
19808;SDS011;48538;32.784;-96.802;2023-11-19T07:36:29;8.52;;;6.32;;
19808;SDS011;48538;32.784;-96.802;2023-11-19T07:38:56;10.27;;;6.82;;
19808;SDS011;48538;32.784;-96.802;2023-11-19T07:41:23;10.00;;;6.90;;
19808;SDS011;48538;32.784;-96.802;2023-11-19T07:43:50;11.85;;;7.38;;
19808;SDS011;48538;32.784;-96.802;2023-11-19T07:46:17;11.93;;;7.53;;
19808;SDS011;48538;32.784;-96.802;2023-11-19T07:48:47;11.77;;;7.05;;
19808;SDS011;48538;32.784;-96.802;2023-11-19T07:51:13;10.13;;;6.80;;
19808;SDS011;48538;32.784;-96.802;2023-11-19T07:53:40;12.48;;;7.28;;
19808;SDS011;48538;32.784;-96.802;2023-11-19T07:56:07;10.07;;;6.72;;
19808;SDS011;48538;32.784;-96.802;2023-11-19T07:58:34;11.45;;;6.80;;
19808;SDS011;48538;32.784;-96.802;2023-11-19T08:01:00;10.50;;;6.97;;
19808;SDS011;48538;32.784;-96.802;2023-11-19T08:03:29;10.05;;;6.93;;
19808;SDS011;48538;32.784;-96.802;2023-11-19T08:05:56;12.25;;;8.05;;
19808;SDS011;48538;32.784;-96.802;2023-11-19T08:08:22;13.00;;;7.40;;
19808;SDS011;48538;32.784;-96.802;2023-11-19T08:10:48;10.50;;;6.75;;
19808;SDS011;48538;32.784;-96.802;2023-11-19T08:13:17;10.77;;;6.88;;
19808;SDS011;48538;32.784;-96.802;2023-11-19T08:15:43;11.30;;;6.75;;
19808;SDS011;48538;32.784;-96.802;2023-11-19T08:18:11;10.38;;;7.40;;
19808;SDS011;48538;32.784;-96.802;2023-11-19T08:20:37;9.88;;;6.03;;
19808;SDS011;48538;32.784;-96.802;2023-11-19T08:23:04;11.98;;;7.50;;
19808;SDS011;48538;32.784;-96.802;2023-11-19T08:25:30;11.40;;;7.90;;
19808;SDS011;48538;32.784;-96.802;2023-11-19T08:27:58;13.02;;;7.57;;
19808;SDS011;48538;32.784;-96.802;2023-11-19T08:30:25;11.27;;;7.05;;
19808;SDS011;48538;32.784;-96.802;2023-11-19T08:32:52;9.35;;;6.90;;
19808;SDS011;48538;32.784;-96.802;2023-11-19T08:35:18;9.30;;;6.57;;
19808;SDS011;48538;32.784;-96.802;2023-11-19T08:37:45;16.80;;;7.68;;
19808;SDS011;48538;32.784;-96.802;2023-11-19T08:40:11;12.85;;;7.00;;
19808;SDS011;48538;32.784;-96.802;2023-11-19T08:42:40;12.52;;;7.57;;
19808;SDS011;48538;32.784;-96.802;2023-11-19T08:45:18;12.55;;;7.45;;
19808;SDS011;48538;32.784;-96.802;2023-11-19T08:47:45;11.20;;;7.90;;
19808;SDS011;48538;32.784;-96.802;2023-11-19T08:50:11;12.88;;;7.82;;
19808;SDS011;48538;32.784;-96.802;2023-11-19T08:52:38;11.90;;;7.35;;
19808;SDS011;48538;32.784;-96.802;2023-11-19T08:55:04;11.43;;;7.45;;
19808;SDS011;48538;32.784;-96.802;2023-11-19T08:57:31;12.45;;;7.28;;
19808;SDS011;48538;32.784;-96.802;2023-11-19T08:59:58;9.80;;;7.25;;
19808;SDS011;48538;32.784;-96.802;2023-11-19T09:02:27;12.48;;;7.97;;
19808;SDS011;48538;32.784;-96.802;2023-11-19T09:04:54;14.23;;;8.40;;
19808;SDS011;48538;32.784;-96.802;2023-11-19T09:07:20;15.65;;;9.23;;
19808;SDS011;48538;32.784;-96.802;2023-11-19T09:09:46;12.13;;;7.18;;
19808;SDS011;48538;32.784;-96.802;2023-11-19T09:12:13;13.80;;;9.65;;
19808;SDS011;48538;32.784;-96.802;2023-11-19T09:14:39;16.95;;;10.70;;
19808;SDS011;48538;32.784;-96.802;2023-11-19T09:17:07;20.95;;;10.50;;
19808;SDS011;48538;32.784;-96.802;2023-11-19T09:19:34;16.50;;;9.70;;
19808;SDS011;48538;32.784;-96.802;2023-11-19T09:22:01;15.02;;;8.60;;
19808;SDS011;48538;32.784;-96.802;2023-11-19T09:24:27;13.98;;;8.80;;
19808;SDS011;48538;32.784;-96.802;2023-11-19T09:26:54;16.63;;;10.00;;
19808;SDS011;48538;32.784;-96.802;2023-11-19T09:29:21;14.40;;;9.48;;
19808;SDS011;48538;32.784;-96.802;2023-11-19T09:31:47;20.13;;;9.63;;
19808;SDS011;48538;32.784;-96.802;2023-11-19T09:34:14;13.43;;;8.70;;
19808;SDS011;48538;32.784;-96.802;2023-11-19T09:36:40;14.02;;;8.40;;
19808;SDS011;48538;32.784;-96.802;2023-11-19T09:39:10;12.65;;;8.35;;
19808;SDS011;48538;32.784;-96.802;2023-11-19T09:41:37;13.60;;;8.82;;
19808;SDS011;48538;32.784;-96.802;2023-11-19T09:44:04;15.13;;;9.02;;
19808;SDS011;48538;32.784;-96.802;2023-11-19T09:46:30;18.65;;;9.63;;
19808;SDS011;48538;32.784;-96.802;2023-11-19T09:48:58;16.48;;;10.52;;
19808;SDS011;48538;32.784;-96.802;2023-11-19T09:51:26;12.82;;;7.97;;
19808;SDS011;48538;32.784;-96.802;2023-11-19T09:53:53;17.77;;;9.35;;
19808;SDS011;48538;32.784;-96.802;2023-11-19T09:56:19;17.27;;;8.98;;
19808;SDS011;48538;32.784;-96.802;2023-11-19T09:58:46;17.35;;;9.75;;
19808;SDS011;48538;32.784;-96.802;2023-11-19T10:01:12;14.35;;;9.50;;
19808;SDS011;48538;32.784;-96.802;2023-11-19T10:03:39;14.35;;;8.80;;
19808;SDS011;48538;32.784;-96.802;2023-11-19T10:06:09;15.73;;;9.45;;
19808;SDS011;48538;32.784;-96.802;2023-11-19T10:08:39;13.27;;;8.45;;
19808;SDS011;48538;32.784;-96.802;2023-11-19T10:11:06;14.18;;;9.40;;
19808;SDS011;48538;32.784;-96.802;2023-11-19T10:13:36;14.27;;;8.80;;
19808;SDS011;48538;32.784;-96.802;2023-11-19T10:16:08;14.18;;;8.90;;
19808;SDS011;48538;32.784;-96.802;2023-11-19T10:18:36;13.10;;;8.75;;
19808;SDS011;48538;32.784;-96.802;2023-11-19T10:21:04;10.05;;;7.70;;
19808;SDS011;48538;32.784;-96.802;2023-11-19T10:23:49;11.65;;;7.78;;
19808;SDS011;48538;32.784;-96.802;2023-11-19T10:26:17;12.00;;;8.00;;
19808;SDS011;48538;32.784;-96.802;2023-11-19T10:28:45;14.85;;;8.45;;
19808;SDS011;48538;32.784;-96.802;2023-11-19T10:31:13;12.73;;;8.18;;
19808;SDS011;48538;32.784;-96.802;2023-11-19T10:33:40;12.85;;;8.30;;
19808;SDS011;48538;32.784;-96.802;2023-11-19T10:36:07;14.48;;;9.38;;
19808;SDS011;48538;32.784;-96.802;2023-11-19T10:38:34;11.68;;;8.02;;
19808;SDS011;48538;32.784;-96.802;2023-11-19T10:41:00;13.93;;;9.50;;
19808;SDS011;48538;32.784;-96.802;2023-11-19T10:43:26;11.77;;;8.57;;
19808;SDS011;48538;32.784;-96.802;2023-11-19T10:45:53;11.13;;;8.00;;
19808;SDS011;48538;32.784;-96.802;2023-11-19T10:48:19;15.13;;;8.35;;
19808;SDS011;48538;32.784;-96.802;2023-11-19T10:50:48;13.97;;;8.93;;
19808;SDS011;48538;32.784;-96.802;2023-11-19T10:53:19;13.20;;;8.63;;
19808;SDS011;48538;32.784;-96.802;2023-11-19T10:55:48;14.43;;;8.27;;
19808;SDS011;48538;32.784;-96.802;2023-11-19T10:58:15;11.85;;;7.63;;
19808;SDS011;48538;32.784;-96.802;2023-11-19T11:00:46;14.45;;;9.48;;
19808;SDS011;48538;32.784;-96.802;2023-11-19T11:03:18;12.48;;;8.88;;
19808;SDS011;48538;32.784;-96.802;2023-11-19T11:05:49;14.85;;;9.70;;
19808;SDS011;48538;32.784;-96.802;2023-11-19T11:08:17;14.82;;;9.77;;
19808;SDS011;48538;32.784;-96.802;2023-11-19T11:10:45;13.77;;;9.55;;
19808;SDS011;48538;32.784;-96.802;2023-11-19T11:13:18;12.18;;;9.43;;
19808;SDS011;48538;32.784;-96.802;2023-11-19T11:15:45;13.98;;;8.95;;
19808;SDS011;48538;32.784;-96.802;2023-11-19T11:18:12;13.80;;;9.68;;
19808;SDS011;48538;32.784;-96.802;2023-11-19T11:20:39;12.52;;;7.53;;
19808;SDS011;48538;32.784;-96.802;2023-11-19T11:23:52;17.20;;;10.13;;
19808;SDS011;48538;32.784;-96.802;2023-11-19T11:29:16;16.33;;;10.23;;
19808;SDS011;48538;32.784;-96.802;2023-11-19T11:37:37;17.02;;;11.00;;
19808;SDS011;48538;32.784;-96.802;2023-11-19T11:40:16;20.30;;;11.45;;
19808;SDS011;48538;32.784;-96.802;2023-11-19T11:42:45;14.85;;;10.43;;
19808;SDS011;48538;32.784;-96.802;2023-11-19T11:45:13;14.70;;;9.88;;
19808;SDS011;48538;32.784;-96.802;2023-11-19T11:50:09;10.93;;;7.55;;
19808;SDS011;48538;32.784;-96.802;2023-11-19T11:55:25;12.82;;;8.90;;
19808;SDS011;48538;32.784;-96.802;2023-11-19T11:57:53;13.48;;;9.43;;
19808;SDS011;48538;32.784;-96.802;2023-11-19T12:02:49;13.75;;;8.65;;
19808;SDS011;48538;32.784;-96.802;2023-11-19T12:05:16;12.65;;;9.05;;
19808;SDS011;48538;32.784;-96.802;2023-11-19T12:07:44;13.25;;;9.35;;
19808;SDS011;48538;32.784;-96.802;2023-11-19T12:10:28;14.82;;;9.63;;
19808;SDS011;48538;32.784;-96.802;2023-11-19T12:13:00;11.57;;;8.75;;
19808;SDS011;48538;32.784;-96.802;2023-11-19T12:15:27;18.02;;;10.48;;
19808;SDS011;48538;32.784;-96.802;2023-11-19T12:17:54;13.15;;;9.70;;
19808;SDS011;48538;32.784;-96.802;2023-11-19T12:20:24;14.45;;;9.18;;
19808;SDS011;48538;32.784;-96.802;2023-11-19T12:22:52;13.43;;;8.63;;
19808;SDS011;48538;32.784;-96.802;2023-11-19T12:25:19;10.80;;;7.68;;
19808;SDS011;48538;32.784;-96.802;2023-11-19T12:27:48;12.38;;;8.55;;
19808;SDS011;48538;32.784;-96.802;2023-11-19T12:32:49;12.43;;;9.20;;
19808;SDS011;48538;32.784;-96.802;2023-11-19T12:35:15;12.80;;;8.77;;
19808;SDS011;48538;32.784;-96.802;2023-11-19T12:37:42;10.35;;;8.50;;
19808;SDS011;48538;32.784;-96.802;2023-11-19T12:40:11;13.45;;;8.88;;
19808;SDS011;48538;32.784;-96.802;2023-11-19T12:42:39;11.20;;;8.77;;
19808;SDS011;48538;32.784;-96.802;2023-11-19T12:45:06;12.65;;;9.13;;
19808;SDS011;48538;32.784;-96.802;2023-11-19T12:47:39;12.85;;;8.23;;
19808;SDS011;48538;32.784;-96.802;2023-11-19T12:50:06;11.77;;;8.00;;
19808;SDS011;48538;32.784;-96.802;2023-11-19T12:52:34;13.38;;;9.30;;
19808;SDS011;48538;32.784;-96.802;2023-11-19T12:55:01;16.45;;;10.43;;
19808;SDS011;48538;32.784;-96.802;2023-11-19T12:57:36;14.43;;;9.80;;
19808;SDS011;48538;32.784;-96.802;2023-11-19T13:00:06;16.45;;;10.30;;
19808;SDS011;48538;32.784;-96.802;2023-11-19T13:02:49;15.50;;;10.80;;
19808;SDS011;48538;32.784;-96.802;2023-11-19T13:05:33;13.23;;;9.00;;
19808;SDS011;48538;32.784;-96.802;2023-11-19T13:10:26;17.95;;;10.43;;
19808;SDS011;48538;32.784;-96.802;2023-11-19T13:13:06;17.48;;;10.85;;
19808;SDS011;48538;32.784;-96.802;2023-11-19T13:15:37;14.50;;;10.20;;
19808;SDS011;48538;32.784;-96.802;2023-11-19T13:18:03;14.63;;;10.13;;
19808;SDS011;48538;32.784;-96.802;2023-11-19T13:20:29;14.93;;;9.97;;
19808;SDS011;48538;32.784;-96.802;2023-11-19T13:25:27;13.23;;;9.33;;
19808;SDS011;48538;32.784;-96.802;2023-11-19T13:27:54;11.43;;;9.10;;
19808;SDS011;48538;32.784;-96.802;2023-11-19T13:30:21;15.17;;;9.60;;
19808;SDS011;48538;32.784;-96.802;2023-11-19T13:32:48;12.93;;;9.93;;
19808;SDS011;48538;32.784;-96.802;2023-11-19T13:35:18;13.45;;;10.02;;
19808;SDS011;48538;32.784;-96.802;2023-11-19T13:37:45;15.07;;;10.43;;
19808;SDS011;48538;32.784;-96.802;2023-11-19T13:40:11;14.63;;;10.10;;
19808;SDS011;48538;32.784;-96.802;2023-11-19T13:42:40;13.53;;;10.33;;
19808;SDS011;48538;32.784;-96.802;2023-11-19T13:45:10;16.57;;;10.30;;
19808;SDS011;48538;32.784;-96.802;2023-11-19T13:47:39;15.27;;;10.53;;
19808;SDS011;48538;32.784;-96.802;2023-11-19T13:50:10;15.83;;;10.67;;
19808;SDS011;48538;32.784;-96.802;2023-11-19T13:52:38;12.73;;;9.37;;
19808;SDS011;48538;32.784;-96.802;2023-11-19T13:55:07;13.70;;;8.47;;
19808;SDS011;48538;32.784;-96.802;2023-11-19T13:57:41;13.90;;;9.23;;
19808;SDS011;48538;32.784;-96.802;2023-11-19T14:00:09;18.17;;;10.13;;
19808;SDS011;48538;32.784;-96.802;2023-11-19T14:02:41;12.33;;;9.20;;
19808;SDS011;48538;32.784;-96.802;2023-11-19T14:05:08;15.17;;;10.13;;
19808;SDS011;48538;32.784;-96.802;2023-11-19T14:07:36;14.67;;;10.07;;
19808;SDS011;48538;32.784;-96.802;2023-11-19T14:10:03;15.07;;;9.70;;
19808;SDS011;48538;32.784;-96.802;2023-11-19T14:12:31;15.67;;;9.63;;
19808;SDS011;48538;32.784;-96.802;2023-11-19T14:14:58;13.43;;;9.30;;
19808;SDS011;48538;32.784;-96.802;2023-11-19T14:17:25;12.53;;;9.07;;
19808;SDS011;48538;32.784;-96.802;2023-11-19T14:19:52;14.60;;;9.63;;
19808;SDS011;48538;32.784;-96.802;2023-11-19T14:22:18;14.18;;;10.02;;
19808;SDS011;48538;32.784;-96.802;2023-11-19T14:24:45;12.53;;;8.40;;
19808;SDS011;48538;32.784;-96.802;2023-11-19T14:27:11;15.85;;;10.15;;
19808;SDS011;48538;32.784;-96.802;2023-11-19T14:29:37;14.13;;;9.73;;
19808;SDS011;48538;32.784;-96.802;2023-11-19T14:32:05;16.10;;;10.97;;
19808;SDS011;48538;32.784;-96.802;2023-11-19T14:34:31;13.20;;;9.33;;
19808;SDS011;48538;32.784;-96.802;2023-11-19T14:36:58;14.63;;;9.13;;